Time;durP1;ratioP1;P1;durP2;ratioP2;P2;SDS_P1;SDS_P2;PMS_P1;PMS_P2;Temp;Humidity;BMP_temperature;BMP_pressure;BME280_temperature;BME280_humidity;BME280_pressure;Samples;Min_cycle;Max_cycle;Signal;HPM_P1;HPM_P2
2022/09/30 00:01:11;;;;;;;24.10;15.30;;;;;;;6.46;72.42;100240.89;1688619;82;27062;-74
2022/09/30 00:03:58;;;;;;;26.30;16.27;;;;;;;6.46;72.42;100240.05;1686029;82;21107;-73
2022/09/30 00:06:45;;;;;;;22.82;15.38;;;;;;;6.47;72.41;100239.19;1699177;81;21087;-73
2022/09/30 00:09:30;;;;;;;22.60;15.75;;;;;;;6.46;72.44;100245.18;1675534;81;159588;-73
2022/09/30 00:12:16;;;;;;;27.45;15.85;;;;;;;6.39;72.36;100257.63;1628418;87;21520;-73
2022/09/30 00:15:01;;;;;;;24.18;15.88;;;;;;;6.37;72.46;100257.63;1593397;89;28680;-73
2022/09/30 00:17:46;;;;;;;26.47;16.03;;;;;;;6.36;72.49;100258.49;1620697;87;21087;-74
2022/09/30 00:20:34;;;;;;;22.87;16.93;;;;;;;6.36;72.47;100260.20;1615998;87;21103;-75
2022/09/30 00:23:21;;;;;;;25.77;16.27;;;;;;;6.34;72.50;100255.52;1584802;89;21498;-76
2022/09/30 00:26:11;;;;;;;26.42;16.52;;;;;;;6.36;72.60;100260.20;1603699;88;21108;-76
2022/09/30 00:28:58;;;;;;;26.10;15.15;;;;;;;6.37;72.59;100261.48;1614883;88;21048;-75
2022/09/30 00:31:43;;;;;;;17.65;13.48;;;;;;;6.38;72.58;100259.34;1585217;88;21152;-76
2022/09/30 00:34:28;;;;;;;21.40;13.55;;;;;;;6.39;72.67;100260.20;1575281;88;21104;-75
2022/09/30 00:37:14;;;;;;;18.02;12.70;;;;;;;6.41;72.65;100252.91;1612720;87;21099;-75
2022/09/30 00:39:58;;;;;;;22.10;14.07;;;;;;;6.41;72.65;100256.77;1616820;88;21120;-75
2022/09/30 00:42:45;;;;;;;22.73;13.60;;;;;;;6.43;72.69;100260.60;1598865;88;21120;-75
2022/09/30 00:45:32;;;;;;;20.82;13.70;;;;;;;6.42;72.69;100259.75;1607720;88;22608;-75
2022/09/30 00:48:22;;;;;;;22.98;12.75;;;;;;;6.44;72.75;100262.31;1613386;88;21167;-75
2022/09/30 00:51:08;;;;;;;21.37;14.03;;;;;;;6.45;72.78;100257.17;1607650;87;21661;-75
2022/09/30 00:53:57;;;;;;;22.00;13.57;;;;;;;6.45;72.72;100261.45;1592095;88;21575;-75
2022/09/30 00:56:47;;;;;;;21.48;12.98;;;;;;;6.46;72.79;100267.86;1611083;86;21132;-75
2022/09/30 00:59:37;;;;;;;20.15;13.35;;;;;;;6.43;72.75;100261.45;1587557;88;21139;-75
2022/09/30 01:02:23;;;;;;;20.37;13.00;;;;;;;6.44;72.85;100263.59;1600120;89;21580;-75
2022/09/30 01:05:08;;;;;;;24.37;13.63;;;;;;;6.45;72.89;100264.02;1601688;87;21071;-75
2022/09/30 01:07:57;;;;;;;18.77;12.82;;;;;;;6.48;72.90;100273.84;1607360;87;21015;-75
2022/09/30 01:10:42;;;;;;;18.35;12.75;;;;;;;6.51;72.94;100266.56;1619766;87;21186;-75
2022/09/30 01:13:30;;;;;;;20.37;12.78;;;;;;;6.54;72.90;100275.11;1609226;89;21091;-74
2022/09/30 01:16:42;;;;;;;20.05;12.95;;;;;;;6.54;72.94;100268.69;1589059;88;21423;-73
2022/09/30 01:20:02;;;;;;;18.87;12.80;;;;;;;6.55;72.96;100270.39;1589911;88;21324;-73
2022/09/30 01:23:10;;;;;;;19.92;12.07;;;;;;;6.57;73.02;100267.81;1585991;88;21106;-74
2022/09/30 01:26:13;;;;;;;16.48;12.18;;;;;;;6.61;73.09;100271.64;1597325;88;21120;-74
2022/09/30 01:29:23;;;;;;;15.88;11.90;;;;;;;6.64;73.12;100266.48;1572854;88;21131;-74
2022/09/30 01:32:46;;;;;;;20.80;12.82;;;;;;;6.67;73.14;100271.19;1596213;87;21036;-73
2022/09/30 01:35:57;;;;;;;17.67;11.68;;;;;;;6.71;73.18;100276.73;1590200;88;21156;-73
2022/09/30 01:39:11;;;;;;;21.70;12.45;;;;;;;6.74;73.18;100283.99;1619480;86;21036;-73
2022/09/30 01:42:23;;;;;;;17.42;12.40;;;;;;;6.78;73.26;100291.22;1598721;87;21087;-74
2022/09/30 01:45:28;;;;;;;17.82;13.13;;;;;;;6.81;73.26;100292.48;1603266;88;21567;-73
2022/09/30 01:48:40;;;;;;;18.77;13.08;;;;;;;6.82;73.25;100289.05;1618705;88;21433;-73
2022/09/30 01:51:36;;;;;;;21.17;12.78;;;;;;;6.82;73.26;100283.91;1621301;88;21511;-73
2022/09/30 01:54:49;;;;;;;19.80;14.25;;;;;;;6.86;73.30;100283.03;1597096;88;21136;-73
2022/09/30 01:58:07;;;;;;;22.15;12.53;;;;;;;6.88;73.34;100287.30;1570753;89;21444;-74
2022/09/30 02:00:56;;;;;;;17.90;12.23;;;;;;;6.89;73.33;100287.72;1596608;88;21571;-73
2022/09/30 02:03:52;;;;;;;18.40;12.07;;;;;;;6.88;73.34;100291.59;1593893;88;21083;-73
2022/09/30 02:06:42;;;;;;;23.42;12.18;;;;;;;6.89;73.39;100289.44;1587014;88;21586;-73
2022/09/30 02:09:36;;;;;;;20.00;12.70;;;;;;;6.88;73.46;100289.02;1602261;88;21617;-73
2022/09/30 02:12:25;;;;;;;21.85;13.10;;;;;;;6.91;73.53;100287.72;1586393;85;21094;-73
2022/09/30 02:15:15;;;;;;;17.87;12.43;;;;;;;6.95;73.50;100290.26;1604424;88;21099;-73
2022/09/30 02:18:05;;;;;;;18.62;13.15;;;;;;;6.96;73.55;100286.83;1617969;87;21101;-73
2022/09/30 02:20:56;;;;;;;18.52;12.88;;;;;;;6.98;73.55;100292.80;1551469;90;21095;-73
2022/09/30 02:23:44;;;;;;;19.82;13.58;;;;;;;6.99;73.49;100288.52;1587312;89;21572;-73
2022/09/30 02:26:36;;;;;;;20.88;13.18;;;;;;;6.98;73.54;100288.95;1601245;87;21153;-73
2022/09/30 02:29:29;;;;;;;20.05;12.85;;;;;;;6.97;73.53;100294.95;1615359;87;21125;-73
2022/09/30 02:32:25;;;;;;;17.42;13.10;;;;;;;6.96;73.65;100295.82;1575026;90;21106;-73
2022/09/30 02:35:25;;;;;;;;;;;;;;;7.00;73.67;100294.52;1579931;89;21138;-73
2022/09/30 02:38:21;;;;;;;14.98;11.55;;;;;;;7.02;73.88;100287.22;1611254;86;20219;-74
2022/09/30 02:41:13;;;;;;;18.05;12.30;;;;;;;7.03;73.68;100289.36;1614915;87;21876;-74
2022/09/30 02:44:01;;;;;;;19.05;12.82;;;;;;;7.03;73.70;100291.49;1582509;87;21446;-73
2022/09/30 02:47:00;;;;;;;17.95;12.95;;;;;;;7.06;73.73;100302.19;1608491;88;21074;-73
2022/09/30 02:50:03;;;;;;;19.73;12.88;;;;;;;7.07;73.76;100304.75;1564085;89;21075;-73
2022/09/30 02:53:26;;;;;;;18.98;14.05;;;;;;;7.08;73.79;100311.59;1552935;89;21085;-73
2022/09/30 02:56:55;;;;;;;19.40;13.65;;;;;;;7.11;73.85;100314.15;1580363;89;21148;-73
2022/09/30 02:59:40;;;;;;;17.27;12.73;;;;;;;7.14;73.87;100308.13;1605107;88;21365;-73
2022/09/30 03:02:25;;;;;;;18.70;13.60;;;;;;;7.13;73.85;100306.42;1599631;87;21095;-73
2022/09/30 03:05:11;;;;;;;22.37;13.77;;;;;;;7.09;73.89;100308.16;1494469;84;5001044;-73
2022/09/30 03:07:56;;;;;;;17.50;13.05;;;;;;;7.10;73.96;100303.44;1637236;85;21044;-73
2022/09/30 03:10:43;;;;;;;20.20;12.80;;;;;;;7.13;73.98;100303.86;1606032;87;21150;-73
2022/09/30 03:13:54;;;;;;;19.70;13.53;;;;;;;7.14;73.95;100308.98;1585171;90;21538;-73
2022/09/30 03:17:05;;;;;;;18.70;13.28;;;;;;;7.17;74.01;100317.11;1561055;88;21557;-73
2022/09/30 03:20:16;;;;;;;17.90;13.00;;;;;;;7.21;74.03;100321.38;1590124;89;21148;-74
2022/09/30 03:23:28;;;;;;;15.85;11.97;;;;;;;7.19;73.99;100323.95;1559188;90;21158;-73
2022/09/30 03:26:41;;;;;;;17.62;14.07;;;;;;;7.19;74.04;100312.38;1573184;89;21607;-73
2022/09/30 03:29:46;;;;;;;22.13;13.50;;;;;;;7.22;74.08;100306.36;1567627;89;21206;-73
2022/09/30 03:32:36;;;;;;;16.77;12.68;;;;;;;7.24;74.09;100307.20;1574598;90;21113;-73
2022/09/30 03:35:49;;;;;;;21.40;13.55;;;;;;;7.26;74.12;100300.33;1568976;90;21608;-74
2022/09/30 03:38:51;;;;;;;25.02;16.40;;;;;;;7.26;74.11;100287.47;1581127;89;21126;-73
2022/09/30 03:42:08;;;;;;;20.02;15.38;;;;;;;7.28;74.16;100292.14;1567366;90;21144;-73
2022/09/30 03:45:10;;;;;;;16.02;13.05;;;;;;;7.29;74.18;100307.99;1580187;89;21130;-73
2022/09/30 03:48:00;;;;;;;16.52;13.28;;;;;;;7.27;74.24;100307.19;1556533;90;21095;-74
2022/09/30 03:50:46;;;;;;;18.77;13.85;;;;;;;7.25;74.23;100314.06;1559296;90;21731;-73
2022/09/30 03:53:41;;;;;;;20.60;15.32;;;;;;;7.25;74.26;100316.62;1568486;90;21113;-73
2022/09/30 03:56:28;;;;;;;21.50;16.42;;;;;;;7.24;74.32;100324.77;1554995;88;21150;-74
2022/09/30 03:59:24;;;;;;;22.17;15.85;;;;;;;7.26;74.33;100329.91;1585331;89;21111;-73
2022/09/30 04:02:12;;;;;;;;;;;;;;;7.26;74.32;100328.19;1568263;90;21093;-73
2022/09/30 04:04:56;;;;;;;23.55;14.55;;;;;;;7.29;74.60;100332.42;1575917;90;20178;-73
2022/09/30 04:07:41;;;;;;;21.25;13.88;;;;;;;7.30;74.42;100330.28;1576384;90;21110;-73
2022/09/30 04:10:26;;;;;;;18.42;13.45;;;;;;;7.31;74.43;100333.27;1598122;87;21172;-73
2022/09/30 04:13:12;;;;;;;19.25;14.00;;;;;;;7.33;74.44;100328.11;1559360;90;21101;-73
2022/09/30 04:15:57;;;;;;;19.07;13.03;;;;;;;7.35;74.43;100334.09;1570576;89;21104;-73
2022/09/30 04:18:42;;;;;;;17.92;13.08;;;;;;;7.35;74.46;100349.09;1595592;88;21124;-74
2022/09/30 04:21:27;;;;;;;16.40;12.33;;;;;;;7.37;74.50;100352.95;1595530;87;21587;-73
2022/09/30 04:24:13;;;;;;;16.50;12.60;;;;;;;7.37;74.47;100352.95;1598329;88;21116;-73
2022/09/30 04:26:59;;;;;;;20.23;13.78;;;;;;;7.29;74.50;100329.85;1607872;87;21112;-73
2022/09/30 04:29:43;;;;;;;17.87;13.28;;;;;;;7.33;74.53;100341.83;1600997;87;21099;-74
2022/09/30 04:32:29;;;;;;;17.02;14.23;;;;;;;7.35;74.62;100349.53;1606503;87;21087;-74
2022/09/30 04:35:14;;;;;;;15.95;14.05;;;;;;;7.37;74.61;100358.95;1618182;84;21100;-74
2022/09/30 04:38:00;;;;;;;15.38;13.70;;;;;;;7.40;74.63;100369.21;1582388;89;21079;-73
2022/09/30 04:40:45;;;;;;;15.18;13.00;;;;;;;7.40;74.63;100365.78;1583156;88;21730;-73
2022/09/30 04:43:31;;;;;;;15.88;12.85;;;;;;;7.35;74.66;100363.25;1597073;87;21548;-73
2022/09/30 04:46:19;;;;;;;17.45;13.88;;;;;;;7.39;74.70;100351.22;1603047;87;21015;-73
2022/09/30 04:49:06;;;;;;;26.23;16.70;;;;;;;7.40;74.71;100353.78;1587225;88;21052;-73
2022/09/30 04:51:51;;;;;;;;;;;;;;;7.41;74.71;100352.06;1596845;87;21125;-73
2022/09/30 04:54:36;;;;;;;22.67;17.30;;;;;;;7.43;74.95;100356.77;1600539;87;20343;-73
2022/09/30 04:57:21;;;;;;;27.80;16.75;;;;;;;7.41;74.73;100354.63;1575976;88;21100;-73
2022/09/30 05:00:08;;;;;;;24.77;18.70;;;;;;;7.40;74.77;100367.07;1624206;87;21096;-73
2022/09/30 05:02:53;;;;;;;23.87;17.20;;;;;;;7.35;74.78;100374.82;1593644;89;20925;-73
2022/09/30 05:05:38;;;;;;;24.32;17.05;;;;;;;7.28;74.81;100381.72;1587779;88;21091;-73
2022/09/30 05:08:24;;;;;;;22.15;16.70;;;;;;;7.28;74.93;100379.58;1614279;88;21467;-73
2022/09/30 05:11:16;;;;;;;25.57;17.70;;;;;;;7.31;74.95;100382.98;1576483;87;22427;-73
2022/09/30 05:14:05;;;;;;;25.50;17.87;;;;;;;7.31;74.97;100380.41;1622423;88;20969;-73
2022/09/30 05:16:49;;;;;;;26.85;18.25;;;;;;;7.35;75.01;100382.53;1612699;86;20949;-73
2022/09/30 05:19:34;;;;;;;25.62;17.77;;;;;;;7.38;75.02;100377.80;1600059;88;20985;-73
2022/09/30 05:22:22;;;;;;;23.92;17.37;;;;;;;7.42;75.02;100385.92;1592757;88;21359;-73
2022/09/30 05:25:07;;;;;;;29.37;18.05;;;;;;;7.44;75.01;100388.05;1609910;88;20930;-73
2022/09/30 05:27:52;;;;;;;25.95;18.95;;;;;;;7.45;75.02;100389.33;1564473;90;20969;-73
2022/09/30 05:30:36;;;;;;;27.05;17.65;;;;;;;7.48;75.04;100381.59;1594304;89;20954;-73
2022/09/30 05:33:21;;;;;;;22.07;16.97;;;;;;;7.48;75.03;100382.02;1613372;88;21005;-73
2022/09/30 05:36:09;;;;;;;27.45;18.92;;;;;;;7.48;75.08;100385.45;1552903;90;20988;-73
2022/09/30 05:38:54;;;;;;;32.03;23.85;;;;;;;7.53;75.13;100395.70;1594554;89;21462;-73
2022/09/30 05:41:39;;;;;;;24.92;18.70;;;;;;;7.57;75.16;100389.67;1599890;88;20968;-73
2022/09/30 05:44:24;;;;;;;24.77;18.05;;;;;;;7.62;75.17;100402.08;1584192;88;20917;-73
2022/09/30 05:47:10;;;;;;;28.27;17.77;;;;;;;7.68;75.22;100399.45;1592505;88;20983;-73
2022/09/30 05:49:54;;;;;;;24.05;19.32;;;;;;;7.73;75.24;100398.98;1595019;88;20987;-73
2022/09/30 05:52:40;;;;;;;24.07;18.05;;;;;;;7.79;75.25;100405.38;1598884;88;20945;-73
2022/09/30 05:55:25;;;;;;;20.95;17.42;;;;;;;7.81;75.25;100407.91;1589693;89;21097;-73
2022/09/30 05:58:10;;;;;;;28.80;18.00;;;;;;;7.84;75.29;100411.31;1583247;88;21498;-73
2022/09/30 06:00:55;;;;;;;28.67;18.80;;;;;;;7.89;75.34;100417.71;1591164;88;21150;-73
2022/09/30 06:03:43;;;;;;;22.67;17.75;;;;;;;7.95;75.38;100422.81;1600756;88;21134;-73
2022/09/30 06:06:29;;;;;;;26.07;19.85;;;;;;;8.03;75.42;100410.73;1600319;88;21066;-73
2022/09/30 06:09:16;;;;;;;22.67;18.60;;;;;;;8.10;75.42;100416.24;1603153;85;21060;-73
2022/09/30 06:12:01;;;;;;;23.73;18.07;;;;;;;8.19;75.50;100421.74;1583202;88;21507;-73
2022/09/30 06:14:46;;;;;;;26.48;20.65;;;;;;;8.29;75.54;100422.08;1602325;88;21064;-73
2022/09/30 06:17:31;;;;;;;23.92;19.85;;;;;;;8.42;75.56;100422.38;1620132;87;21673;-73
2022/09/30 06:20:16;;;;;;;24.80;19.02;;;;;;;8.58;75.57;100435.95;1610444;87;21094;-73
2022/09/30 06:23:02;;;;;;;26.52;19.30;;;;;;;8.71;75.57;100433.66;1612938;88;21135;-73
2022/09/30 06:25:53;;;;;;;27.35;19.73;;;;;;;8.79;75.57;100446.03;1595944;88;21115;-73
2022/09/30 06:28:39;;;;;;;26.73;19.92;;;;;;;8.86;75.59;100454.09;1583244;88;21174;-73
2022/09/30 06:31:24;;;;;;;29.90;20.80;;;;;;;8.91;75.59;100457.47;1603900;88;21122;-73
2022/09/30 06:34:09;;;;;;;31.93;22.60;;;;;;;8.98;75.63;100454.81;1597005;88;21549;-73
2022/09/30 06:36:54;;;;;;;25.88;22.40;;;;;;;9.06;75.67;100462.03;1588279;88;21275;-74
2022/09/30 06:39:40;;;;;;;32.42;23.18;;;;;;;9.13;75.68;100469.67;1601823;88;21523;-73
2022/09/30 06:42:25;;;;;;;36.17;27.42;;;;;;;9.32;75.78;100473.31;1570792;88;24937;-73
2022/09/30 06:45:11;;;;;;;39.18;26.50;;;;;;;9.95;76.18;100474.06;1608711;88;21107;-73
2022/09/30 06:47:59;;;;;;;37.17;29.72;;;;;;;10.93;76.08;100479.64;1599928;88;21363;-73
2022/09/30 06:50:45;;;;;;;35.58;30.08;;;;;;;11.74;75.93;100479.19;1602693;88;21071;-74
2022/09/30 06:53:30;;;;;;;38.17;29.87;;;;;;;12.67;75.74;100475.56;1596788;88;21067;-74
2022/09/30 06:56:17;;;;;;;29.50;26.07;;;;;;;13.60;75.54;100477.63;1600692;88;21270;-74
2022/09/30 06:59:01;;;;;;;24.35;21.45;;;;;;;14.55;75.42;100468.90;1591813;88;21137;-74
2022/09/30 07:01:47;;;;;;;24.20;20.85;;;;;;;15.40;75.39;100470.09;1597973;88;21135;-74
2022/09/30 07:04:32;;;;;;;26.30;20.02;;;;;;;16.31;75.26;100472.08;1605177;87;21086;-74
2022/09/30 07:07:20;;;;;;;20.37;18.17;;;;;;;17.09;75.09;100477.38;1611962;87;21116;-74
2022/09/30 07:10:04;;;;;;;;;;;;;;;17.80;75.02;100468.78;1616462;87;21137;-74
2022/09/30 07:12:51;;;;;;;24.63;17.27;;;;;;;18.31;73.82;100481.98;1592962;87;20176;-74
2022/09/30 07:15:36;;;;;;;22.20;16.73;;;;;;;18.48;74.74;100481.52;1601267;87;21753;-74
2022/09/30 07:18:23;;;;;;;18.27;15.43;;;;;;;18.60;74.44;100488.37;1585273;88;21124;-74
2022/09/30 07:21:09;;;;;;;15.70;14.20;;;;;;;18.43;74.70;100496.62;1594678;88;21127;-74
2022/09/30 07:23:57;;;;;;;17.92;16.00;;;;;;;18.90;74.55;100494.66;1605966;88;26293;-74
2022/09/30 07:26:40;;;;;;;;;;;;;;;19.54;74.39;100492.98;1609872;85;21048;-74
2022/09/30 07:29:25;;;;;;;13.90;12.50;;;;;;;19.67;72.90;100494.86;1577451;89;20228;-74
2022/09/30 07:32:11;;;;;;;15.30;13.83;;;;;;;19.40;73.95;100500.27;1608654;87;21147;-74
2022/09/30 07:34:56;;;;;;;15.68;12.65;;;;;;;19.45;73.60;100500.40;1575607;89;21032;-74
2022/09/30 07:37:41;;;;;;;14.80;13.25;;;;;;;19.12;73.42;100509.64;1597112;89;21079;-74
2022/09/30 07:40:30;;;;;;;15.75;14.20;;;;;;;18.76;73.32;100506.31;1601374;88;21092;-74
2022/09/30 07:43:15;;;;;;;15.38;13.93;;;;;;;18.34;73.15;100510.63;1605714;88;21075;-74
2022/09/30 07:46:05;;;;;;;;;;;;;;;17.86;73.10;100513.42;1609834;88;21128;-74
2022/09/30 07:48:55;;;;;;;13.03;11.83;;;;;;;17.44;72.12;100515.80;1583011;89;20213;-74
2022/09/30 07:51:44;;;;;;;14.83;12.78;;;;;;;17.07;72.71;100517.95;1610521;87;21064;-74
2022/09/30 07:54:32;;;;;;;14.10;12.82;;;;;;;16.96;72.90;100525.41;1584895;88;20985;-74
2022/09/30 07:57:17;;;;;;;12.93;11.68;;;;;;;17.07;72.11;100532.77;1603944;87;21135;-74
2022/09/30 08:00:04;;;;;;;12.90;11.33;;;;;;;16.81;71.97;100530.83;1605423;87;21519;-74
2022/09/30 08:02:49;;;;;;;13.30;12.10;;;;;;;16.92;71.82;100525.61;1600214;88;21060;-73
2022/09/30 08:05:44;;;;;;;12.35;11.08;;;;;;;16.94;71.85;100531.16;1598897;86;21756;-74
2022/09/30 08:08:28;;;;;;;12.35;11.05;;;;;;;17.52;71.58;100528.06;1607933;87;21580;-74
2022/09/30 08:11:13;;;;;;;11.53;10.43;;;;;;;17.75;71.18;100525.70;1594816;86;21586;-74
2022/09/30 08:13:58;;;;;;;9.80;8.50;;;;;;;18.05;71.13;100526.02;1612061;87;21579;-74
2022/09/30 08:16:44;;;;;;;9.83;8.73;;;;;;;18.59;70.77;100524.66;1608353;87;21147;-74
2022/09/30 08:19:32;;;;;;;10.20;9.25;;;;;;;18.86;70.26;100525.88;1600999;88;21100;-74
2022/09/30 08:22:17;;;;;;;10.30;9.30;;;;;;;18.58;70.23;100534.28;1619028;87;21109;-74
2022/09/30 08:25:03;;;;;;;9.60;8.70;;;;;;;18.22;70.12;100533.48;1609674;87;21067;-74
2022/09/30 08:27:49;;;;;;;11.15;10.00;;;;;;;17.90;70.10;100541.59;1613168;88;21096;-74
2022/09/30 08:30:36;;;;;;;10.30;9.30;;;;;;;17.67;70.11;100544.85;1600600;88;21586;-74
2022/09/30 08:33:20;;;;;;;;;;;;;;;17.49;69.77;100538.66;1616593;85;21189;-74
2022/09/30 08:36:10;;;;;;;9.58;8.65;;;;;;;17.06;68.78;100542.83;1580969;88;20212;-74
2022/09/30 08:38:56;;;;;;;11.20;9.43;;;;;;;16.80;69.42;100546.56;1613550;87;21116;-74
2022/09/30 08:42:14;;;;;;;11.30;9.50;;;;;;;16.49;69.38;100554.38;1598081;87;21104;-74
2022/09/30 08:45:33;;;;;;;9.55;8.65;;;;;;;16.43;69.19;100541.58;1596088;89;21392;-73
2022/09/30 08:49:08;;;;;;;12.68;9.50;;;;;;;16.38;68.99;100549.20;1594474;88;21108;-73
2022/09/30 08:51:54;;;;;;;14.55;9.25;;;;;;;16.29;68.72;100554.33;1593535;88;21555;-74
2022/09/30 08:54:44;;;;;;;9.80;8.90;;;;;;;16.22;68.47;100551.58;1597050;87;21068;-74
2022/09/30 08:57:42;;;;;;;8.95;7.67;;;;;;;16.17;68.31;100562.65;1617708;87;21000;-74
2022/09/30 09:00:27;;;;;;;7.60;6.95;;;;;;;16.12;68.17;100562.83;1589285;89;21560;-73
2022/09/30 09:03:13;;;;;;;8.33;7.62;;;;;;;16.16;68.04;100564.41;1614772;88;21108;-73
2022/09/30 09:06:09;;;;;;;8.60;7.78;;;;;;;16.19;67.83;100558.22;1603549;88;21118;-73
2022/09/30 09:09:18;;;;;;;10.30;7.58;;;;;;;16.21;67.78;100554.64;1600046;88;21555;-74
2022/09/30 09:12:32;;;;;;;6.58;6.03;;;;;;;16.24;67.50;100556.28;1599082;88;21115;-74
2022/09/30 09:15:46;;;;;;;7.58;5.72;;;;;;;16.21;67.39;100557.70;1596983;88;21068;-73
2022/09/30 09:18:39;;;;;;;6.90;6.25;;;;;;;16.19;67.19;100559.07;1598706;88;21739;-74
2022/09/30 09:21:53;;;;;;;7.47;5.35;;;;;;;16.15;67.18;100564.02;1583858;89;21526;-74
2022/09/30 09:24:46;;;;;;;7.20;5.72;;;;;;;16.10;66.99;100558.16;1592956;88;21035;-73
2022/09/30 09:27:59;;;;;;;7.87;6.40;;;;;;;16.12;66.75;100560.22;1608577;87;21068;-74
2022/09/30 09:30:49;;;;;;;8.08;7.28;;;;;;;16.13;66.86;100566.29;1600393;89;21084;-74
2022/09/30 09:33:38;;;;;;;7.95;7.25;;;;;;;16.15;66.64;100573.59;1595348;89;21083;-73
2022/09/30 09:36:44;;;;;;;7.33;6.53;;;;;;;15.98;66.14;100566.92;1612963;87;21049;-74
2022/09/30 09:40:06;;;;;;;8.00;7.00;;;;;;;15.87;66.33;100566.03;1609545;87;21057;-73
2022/09/30 09:43:17;;;;;;;8.28;7.55;;;;;;;15.84;66.26;100565.69;1600607;89;21080;-73
2022/09/30 09:46:33;;;;;;;8.63;7.50;;;;;;;15.74;65.97;100569.55;1601886;89;21127;-74
2022/09/30 09:49:29;;;;;;;10.55;7.83;;;;;;;15.76;66.15;100574.27;1597972;89;21072;-74
2022/09/30 09:52:22;;;;;;;7.85;6.80;;;;;;;15.76;66.16;100574.27;1590690;89;21064;-73
2022/09/30 09:55:08;;;;;;;7.42;6.10;;;;;;;15.77;66.06;100574.66;1585835;89;21080;-74
2022/09/30 09:58:16;;;;;;;6.15;5.55;;;;;;;15.74;65.91;100574.77;1627667;87;20984;-74
2022/09/30 10:01:30;;;;;;;9.08;5.58;;;;;;;15.73;65.81;100561.80;1562232;87;21143;-73
2022/09/30 10:04:26;;;;;;;7.12;6.42;;;;;;;15.73;65.74;100560.48;1617524;87;21110;-73
2022/09/30 10:07:14;;;;;;;7.15;6.55;;;;;;;15.73;65.59;100562.64;1607812;88;21131;-74
2022/09/30 10:10:16;;;;;;;7.97;7.28;;;;;;;15.68;65.38;100566.33;1615696;87;21079;-74
2022/09/30 10:13:01;;;;;;;7.65;6.87;;;;;;;15.63;65.46;100568.27;1608123;87;21083;-74
2022/09/30 10:15:48;;;;;;;8.90;8.08;;;;;;;15.60;65.39;100570.53;1605618;87;20999;-74
2022/09/30 10:18:35;;;;;;;;;;;;;;;15.66;65.40;100563.78;1615591;87;21057;-74
2022/09/30 10:21:27;;;;;;;14.87;8.63;;;;;;;15.73;65.15;100569.16;1608873;88;20246;-73
2022/09/30 10:24:30;;;;;;;9.45;8.48;;;;;;;15.70;65.09;100566.67;1601132;88;21164;-73
2022/09/30 10:27:31;;;;;;;8.65;7.42;;;;;;;15.73;65.26;100565.25;1594402;89;21108;-74
2022/09/30 10:30:42;;;;;;;9.43;7.45;;;;;;;15.77;65.19;100568.14;1569996;88;21132;-74
2022/09/30 10:33:42;;;;;;;8.65;7.25;;;;;;;15.78;65.01;100559.86;1612972;88;21579;-74
2022/09/30 10:36:36;;;;;;;6.58;5.97;;;;;;;15.79;64.95;100559.80;1614070;88;21137;-73
2022/09/30 10:39:31;;;;;;;6.20;5.35;;;;;;;15.79;64.86;100558.95;1573132;88;20934;-73
2022/09/30 10:42:26;;;;;;;8.93;6.75;;;;;;;15.79;64.80;100558.50;1583250;89;20897;-73
2022/09/30 10:45:21;;;;;;;6.75;6.15;;;;;;;15.80;64.78;100558.89;1586602;88;20937;-74
2022/09/30 10:48:11;;;;;;;9.78;6.37;;;;;;;15.82;64.74;100560.99;1605209;88;21449;-74
2022/09/30 10:50:56;;;;;;;6.58;6.05;;;;;;;15.82;64.62;100563.59;1605761;88;20953;-74
2022/09/30 10:53:43;;;;;;;6.85;6.15;;;;;;;15.77;64.55;100575.96;1609543;88;20958;-73
2022/09/30 10:56:36;;;;;;;7.15;6.12;;;;;;;15.76;64.56;100575.56;1618822;88;20977;-73
2022/09/30 10:59:26;;;;;;;7.00;4.95;;;;;;;15.75;64.51;100578.23;1605002;88;20978;-73
2022/09/30 11:02:31;;;;;;;7.42;6.47;;;;;;;15.77;64.46;100571.20;1587097;88;21577;-73
2022/09/30 11:05:32;;;;;;;7.95;7.25;;;;;;;15.81;64.38;100565.81;1616458;88;20942;-73
2022/09/30 11:08:57;;;;;;;6.60;6.03;;;;;;;15.81;64.24;100570.17;1605413;88;21426;-73
2022/09/30 11:12:00;;;;;;;8.85;6.42;;;;;;;15.78;64.25;100567.23;1606716;88;21328;-73
2022/09/30 11:14:59;;;;;;;7.17;6.55;;;;;;;15.69;64.05;100568.88;1590108;88;21061;-73
2022/09/30 11:17:58;;;;;;;7.00;6.33;;;;;;;15.54;63.96;100568.15;1575566;89;21075;-73
2022/09/30 11:20:51;;;;;;;7.00;6.33;;;;;;;15.45;63.96;100560.66;1595444;88;21084;-73
2022/09/30 11:23:51;;;;;;;6.72;6.12;;;;;;;15.41;63.96;100565.14;1608887;88;21068;-73
2022/09/30 11:27:02;;;;;;;8.73;6.10;;;;;;;15.38;63.95;100553.53;1591853;89;21132;-73
2022/09/30 11:30:04;;;;;;;5.37;4.90;;;;;;;15.35;63.91;100555.39;1581305;89;21112;-73
2022/09/30 11:33:13;;;;;;;4.33;3.65;;;;;;;15.32;63.89;100554.20;1595443;88;21095;-73
2022/09/30 11:36:24;;;;;;;4.92;4.20;;;;;;;15.28;63.78;100550.01;1601401;86;21161;-73
2022/09/30 11:39:41;;;;;;;4.67;4.28;;;;;;;15.26;63.72;100550.06;1597414;88;21567;-74
2022/09/30 11:43:13;;;;;;;5.70;4.83;;;;;;;15.32;63.74;100542.48;1585298;89;21464;-74
2022/09/30 11:46:27;;;;;;;6.12;4.37;;;;;;;15.41;63.69;100539.09;1596944;88;21107;-73
2022/09/30 11:49:31;;;;;;;5.17;4.30;;;;;;;15.49;63.57;100537.05;1566736;89;21590;-75
2022/09/30 11:52:30;;;;;;;3.72;3.42;;;;;;;15.49;63.48;100542.26;1559074;89;21576;-72
2022/09/30 11:55:39;;;;;;;3.95;3.40;;;;;;;15.45;63.43;100538.52;1594511;88;21132;-73
2022/09/30 11:58:28;;;;;;;4.08;3.75;;;;;;;15.47;63.37;100540.16;1596744;88;21275;-73
2022/09/30 12:01:29;;;;;;;5.40;3.90;;;;;;;15.49;63.30;100540.95;1570461;88;21077;-73
2022/09/30 12:04:30;;;;;;;4.55;4.08;;;;;;;15.54;63.29;100544.23;1590096;88;21168;-73
2022/09/30 12:07:38;;;;;;;8.30;4.10;;;;;;;15.58;63.25;100541.09;1602577;88;21056;-73
2022/09/30 12:10:40;;;;;;;6.37;4.70;;;;;;;15.57;63.08;100540.70;1598258;88;21057;-73
2022/09/30 12:13:43;;;;;;;5.87;5.15;;;;;;;15.49;62.90;100536.20;1594048;88;21601;-73
2022/09/30 12:16:31;;;;;;;6.08;5.28;;;;;;;15.36;62.87;100535.80;1592220;88;21555;-73
2022/09/30 12:19:28;;;;;;;6.12;5.53;;;;;;;15.27;62.91;100545.70;1605780;87;21091;-73
2022/09/30 12:22:20;;;;;;;6.75;5.22;;;;;;;15.19;62.90;100544.67;1603713;88;21166;-73
2022/09/30 12:25:19;;;;;;;7.05;4.78;;;;;;;15.15;62.88;100538.73;1605079;87;21112;-73
2022/09/30 12:32:09;;;;;;;6.37;5.78;;;;;;;15.22;62.84;100538.91;1604219;88;21135;-73
2022/09/30 12:35:20;;;;;;;6.23;5.63;;;;;;;15.29;62.77;100527.81;1593001;88;21110;-73
2022/09/30 12:38:17;;;;;;;6.33;5.25;;;;;;;15.32;62.65;100526.84;1617945;87;21147;-73
2022/09/30 12:41:35;;;;;;;6.87;4.50;;;;;;;15.32;62.59;100533.36;1606246;87;21382;-73
2022/09/30 12:44:55;;;;;;;8.70;6.10;;;;;;;15.34;62.60;100533.70;1590862;87;21084;-73
2022/09/30 12:47:53;;;;;;;8.90;7.05;;;;;;;15.37;62.52;100541.41;1585530;89;21576;-73
2022/09/30 12:50:52;;;;;;;10.30;6.78;;;;;;;15.36;62.51;100538.86;1597840;85;21069;-73
2022/09/30 12:53:39;;;;;;;6.58;5.97;;;;;;;15.33;62.46;100537.21;1573764;89;21143;-73
2022/09/30 12:56:27;;;;;;;7.08;6.08;;;;;;;15.28;62.38;100538.28;1595563;88;21704;-73
2022/09/30 12:59:14;;;;;;;6.55;5.95;;;;;;;15.23;62.38;100541.05;1587405;87;21091;-73
2022/09/30 13:02:02;;;;;;;5.87;5.10;;;;;;;15.18;62.36;100536.02;1594821;87;21179;-73
2022/09/30 13:04:49;;;;;;;7.22;6.37;;;;;;;15.13;62.32;100538.38;1593332;88;21099;-73
2022/09/30 13:07:34;;;;;;;6.30;5.67;;;;;;;15.09;62.38;100536.80;1600823;87;21693;-73
2022/09/30 13:10:39;;;;;;;8.90;5.62;;;;;;;15.06;62.37;100533.88;1615614;87;21124;-73
2022/09/30 13:13:35;;;;;;;6.25;5.65;;;;;;;15.03;62.34;100530.08;1603633;88;22214;-73
2022/09/30 13:16:28;;;;;;;6.10;5.37;;;;;;;15.01;62.42;100530.59;1581548;88;21123;-74
2022/09/30 13:19:20;;;;;;;7.33;4.72;;;;;;;15.00;62.43;100535.39;1590473;87;21005;-74
2022/09/30 13:22:29;;;;;;;6.40;5.72;;;;;;;14.99;62.37;100537.60;1611440;87;20990;-75
2022/09/30 13:25:15;;;;;;;7.20;5.25;;;;;;;15.02;62.33;100537.50;1589474;89;21019;-74
2022/09/30 13:28:24;;;;;;;6.67;6.08;;;;;;;15.07;62.29;100532.97;1603557;87;21127;-75